Time;durP1;ratioP1;P1;durP2;ratioP2;P2;SDS_P1;SDS_P2;PMS_P1;PMS_P2;Temp;Humidity;BMP_temperature;BMP_pressure;BME280_temperature;BME280_humidity;BME280_pressure;Samples;Min_cycle;Max_cycle;Signal;HPM_P1;HPM_P2
2023/01/05 00:00:31;;;;;;;13.35;2.40;;;;;;;10.39;100.00;100075.41;5204847;28;20029;-74
2023/01/05 00:03:02;;;;;;;10.50;1.63;;;;;;;10.32;100.00;100078.34;5223278;28;20025;-74
2023/01/05 00:05:32;;;;;;;17.92;2.60;;;;;;;10.21;100.00;100096.19;5220058;28;20037;-74
2023/01/05 00:08:02;;;;;;;10.38;1.75;;;;;;;10.27;100.00;100096.78;5208526;28;20032;-76
2023/01/05 00:24:41;;;;;;;10.85;1.98;;;;;;;10.07;100.00;100080.25;5230840;28;20113;-73
2023/01/05 00:27:11;;;;;;;14.20;2.10;;;;;;;10.03;100.00;100099.56;5214767;28;20029;-74
2023/01/05 00:29:41;;;;;;;15.18;2.15;;;;;;;10.16;100.00;100092.94;5229260;28;20025;-74
2023/01/05 00:32:12;;;;;;;13.60;1.65;;;;;;;10.11;100.00;100090.50;5226657;28;20044;-73
2023/01/05 00:34:42;;;;;;;11.77;1.90;;;;;;;10.11;100.00;100100.97;5231467;28;20609;-76
2023/01/05 00:37:13;;;;;;;14.32;2.40;;;;;;;10.14;100.00;100102.59;5233662;28;20051;-74
2023/01/05 00:39:43;;;;;;;8.50;1.60;;;;;;;10.24;100.00;100104.75;5225997;28;20418;-76
2023/01/05 00:42:13;;;;;;;14.38;2.10;;;;;;;10.20;100.00;100089.28;5232551;28;20438;-74
2023/01/05 00:44:44;;;;;;;11.35;2.00;;;;;;;10.22;100.00;100097.91;5216462;28;20033;-73
2023/01/05 00:47:15;;;;;;;11.55;2.35;;;;;;;10.25;100.00;100100.38;5231067;28;20024;-72
2023/01/05 00:49:45;;;;;;;12.70;1.80;;;;;;;10.18;100.00;100091.13;5231698;28;20028;-75
2023/01/05 00:52:16;;;;;;;12.07;1.90;;;;;;;10.16;100.00;100088.56;5209894;28;20035;-75
2023/01/05 00:54:47;;;;;;;13.27;2.50;;;;;;;10.21;100.00;100096.19;5213420;28;20029;-75
2023/01/05 00:57:17;;;;;;;14.70;1.70;;;;;;;10.15;100.00;100093.84;5212067;28;20502;-75
2023/01/05 00:59:47;;;;;;;13.27;2.58;;;;;;;10.18;100.00;100091.13;5227827;28;20033;-74
2023/01/05 01:02:18;;;;;;;10.98;2.20;;;;;;;10.11;100.00;100100.09;5221982;28;20414;-73
2023/01/05 01:04:48;;;;;;;15.05;2.20;;;;;;;10.09;100.00;100084.50;5227299;28;20118;-74
2023/01/05 01:07:18;;;;;;;12.68;2.03;;;;;;;10.15;100.00;100091.25;5231093;28;20024;-71
2023/01/05 01:09:49;;;;;;;17.58;2.38;;;;;;;10.11;100.00;100100.97;5232261;28;20204;-75
2023/01/05 01:12:19;;;;;;;11.02;2.00;;;;;;;10.03;100.00;100105.63;5202945;28;20035;-74
2023/01/05 01:14:49;;;;;;;20.65;2.90;;;;;;;10.11;100.00;100102.69;5229249;28;20029;-75
2023/01/05 01:17:20;;;;;;;13.65;2.63;;;;;;;10.17;100.00;100113.75;5230567;28;20515;-73
2023/01/05 01:19:50;;;;;;;16.73;2.17;;;;;;;10.20;100.00;100116.22;5230203;28;20037;-72
2023/01/05 01:22:20;;;;;;;16.17;2.30;;;;;;;10.17;100.00;100107.69;5202813;28;20056;-73
2023/01/05 01:24:51;;;;;;;17.52;2.55;;;;;;;10.27;100.00;100107.25;5230043;28;20710;-73
2023/01/05 01:27:21;;;;;;;11.30;2.15;;;;;;;10.30;100.00;100106.25;5213852;28;20367;-73
2023/01/05 01:29:52;;;;;;;14.30;2.42;;;;;;;10.28;100.00;100115.91;5226159;28;20250;-75
2023/01/05 01:32:23;;;;;;;14.35;2.55;;;;;;;10.35;100.00;100126.03;5229879;28;20028;-74
2023/01/05 01:34:54;;;;;;;13.45;2.00;;;;;;;10.33;100.00;100116.59;5230882;28;20084;-73
2023/01/05 01:37:24;;;;;;;15.43;2.25;;;;;;;10.41;100.00;100119.72;5214013;28;20055;-73
2023/01/05 01:39:55;;;;;;;15.18;2.17;;;;;;;10.38;100.00;100125.06;5210650;28;20025;-74
2023/01/05 01:42:25;;;;;;;12.82;2.17;;;;;;;10.40;100.00;100131.94;5214051;28;20047;-75
2023/01/05 01:45:00;;;;;;;17.75;2.10;;;;;;;10.41;100.00;100131.03;5230412;28;20493;-74
2023/01/05 01:47:50;;;;;;;13.27;2.78;;;;;;;10.34;100.00;100128.72;5227849;28;20017;-74
2023/01/05 01:50:38;;;;;;;16.48;2.28;;;;;;;10.41;100.00;100135.38;5227180;28;20108;-74
2023/01/05 01:53:17;;;;;;;16.77;2.47;;;;;;;10.38;100.00;100127.69;5214594;28;20404;-74
2023/01/05 01:55:50;;;;;;;13.38;2.20;;;;;;;10.45;100.00;100129.13;5223008;28;20103;-74
2023/01/05 01:58:24;;;;;;;13.90;2.08;;;;;;;10.39;100.00;100138.09;5223465;28;20039;-73
2023/01/05 02:00:56;;;;;;;18.15;2.60;;;;;;;10.34;100.00;100139.19;5203425;28;20025;-73
2023/01/05 02:03:28;;;;;;;15.82;2.35;;;;;;;10.34;100.00;100123.50;5226044;28;20079;-73
2023/01/05 02:05:58;;;;;;;14.88;2.70;;;;;;;10.33;100.00;100129.66;5231361;28;20024;-74
2023/01/05 02:08:30;;;;;;;16.98;2.92;;;;;;;10.25;100.00;100131.72;5230278;28;20027;-74
2023/01/05 02:11:16;;;;;;;17.40;2.90;;;;;;;10.23;100.00;100128.31;5232320;28;20028;-75
2023/01/05 02:14:01;;;;;;;19.40;2.95;;;;;;;10.34;100.00;100133.97;5223667;28;20033;-74
2023/01/05 02:17:09;;;;;;;18.65;2.90;;;;;;;10.37;100.00;100128.59;5231077;28;20020;-73
2023/01/05 02:19:58;;;;;;;17.67;2.33;;;;;;;10.32;100.00;100136.63;5231628;28;20111;-74
2023/01/05 02:23:06;;;;;;;14.75;2.70;;;;;;;10.30;100.00;100128.00;5224308;28;20064;-73
2023/01/05 02:26:24;;;;;;;15.80;2.30;;;;;;;10.33;100.00;100137.47;5248603;22;20207;-72
2023/01/05 02:29:17;;;;;;;12.77;1.73;;;;;;;10.29;100.00;100135.88;5182460;28;20060;-72
2023/01/05 02:31:59;;;;;;;14.40;2.28;;;;;;;10.35;100.00;100119.97;5225875;28;20299;-72
2023/01/05 02:34:39;;;;;;;22.15;2.53;;;;;;;10.38;100.00;100125.91;5230930;28;20541;-72
2023/01/05 02:37:23;;;;;;;18.17;2.67;;;;;;;10.40;100.00;100124.09;5227000;28;20420;-72
2023/01/05 02:39:53;;;;;;;11.45;1.92;;;;;;;10.32;100.00;100120.13;5226971;28;20036;-72
2023/01/05 02:42:26;;;;;;;17.73;2.47;;;;;;;10.35;100.00;100120.81;5230726;28;20444;-71
2023/01/05 02:44:56;;;;;;;18.08;2.95;;;;;;;10.43;100.00;100133.56;5229440;28;20276;-72
2023/01/05 02:47:26;;;;;;;14.88;2.40;;;;;;;10.40;100.00;100125.84;5227585;28;20283;-72
2023/01/05 02:50:03;;;;;;;15.52;2.40;;;;;;;10.32;100.00;100122.72;5227801;28;20651;-72
2023/01/05 02:52:44;;;;;;;16.92;2.53;;;;;;;10.34;100.00;100120.91;5224112;28;20109;-72
2023/01/05 02:55:19;;;;;;;17.90;2.47;;;;;;;10.39;100.00;100129.38;5225357;28;20025;-72
2023/01/05 02:57:58;;;;;;;17.73;2.60;;;;;;;10.34;100.00;100124.34;5226317;28;20041;-72
2023/01/05 03:00:34;;;;;;;17.77;2.60;;;;;;;10.29;100.00;100123.69;5222058;28;20057;-72
2023/01/05 03:03:32;;;;;;;18.00;2.45;;;;;;;10.25;100.00;100123.88;5226395;28;20078;-72
2023/01/05 03:06:09;;;;;;;18.25;2.58;;;;;;;10.23;100.00;100139.63;5229157;28;20536;-71
2023/01/05 03:08:48;;;;;;;15.63;2.25;;;;;;;10.06;100.00;100133.38;5229664;28;20079;-72
2023/01/05 03:14:15;;;;;;;11.45;1.90;;;;;;;9.98;100.00;100146.72;5228918;28;20445;-72
2023/01/05 03:16:48;;;;;;;16.63;2.67;;;;;;;9.94;100.00;100154.72;5224263;28;20048;-73
2023/01/05 03:19:35;;;;;;;16.17;2.97;;;;;;;9.92;100.00;100161.75;5230845;28;20035;-72
2023/01/05 03:37:09;;;;;;;14.90;2.67;;;;;;;9.67;100.00;100166.25;5223531;28;20035;-72
2023/01/05 03:39:43;;;;;;;19.85;2.75;;;;;;;9.65;100.00;100157.63;5228632;28;20855;-72
2023/01/05 03:42:15;;;;;;;19.02;2.53;;;;;;;9.61;100.00;100174.28;5232687;28;20557;-72
2023/01/05 03:44:47;;;;;;;16.55;2.35;;;;;;;9.72;100.00;100179.94;5223713;28;20722;-72
2023/01/05 03:47:17;;;;;;;12.20;2.47;;;;;;;9.69;100.00;100169.63;5228310;28;20090;-72
2023/01/05 03:49:48;;;;;;;15.40;2.92;;;;;;;9.74;100.00;100175.53;5223600;28;20029;-71
2023/01/05 03:52:18;;;;;;;14.68;2.35;;;;;;;9.64;100.00;100188.06;5208769;28;20460;-72
2023/01/05 03:54:48;;;;;;;15.57;2.65;;;;;;;9.68;100.00;100176.59;5229870;28;20056;-72
2023/01/05 03:57:18;;;;;;;16.33;3.17;;;;;;;9.69;100.00;100180.06;5231449;28;20481;-73
2023/01/05 03:59:49;;;;;;;18.40;2.70;;;;;;;9.68;100.00;100188.81;5225197;28;20099;-73
2023/01/05 04:02:19;;;;;;;18.27;2.78;;;;;;;9.73;100.00;100186.88;5227601;28;20024;-72
2023/01/05 04:04:49;;;;;;;20.58;2.70;;;;;;;9.71;100.00;100188.69;5229307;28;20125;-72
2023/01/05 04:07:19;;;;;;;20.65;3.25;;;;;;;9.68;100.00;100189.66;5229004;28;20390;-72
2023/01/05 04:09:50;;;;;;;18.70;3.47;;;;;;;9.67;100.00;100181.91;5225679;28;20027;-72
2023/01/05 04:12:20;;;;;;;19.55;2.67;;;;;;;9.66;100.00;100195.84;5231080;28;20549;-72
2023/01/05 04:14:50;;;;;;;17.58;2.60;;;;;;;9.66;100.00;100180.19;5229056;28;20437;-73
2023/01/05 04:17:21;;;;;;;16.48;2.75;;;;;;;9.69;100.00;100188.75;5229751;28;20024;-72
2023/01/05 04:19:51;;;;;;;17.50;2.40;;;;;;;9.78;100.00;100184.94;5222817;28;20045;-73
2023/01/05 04:22:21;;;;;;;15.43;2.80;;;;;;;9.78;100.00;100203.19;5225164;28;20534;-72
2023/01/05 04:24:52;;;;;;;18.58;2.60;;;;;;;9.81;100.00;100205.72;5227787;28;20033;-71
2023/01/05 04:27:22;;;;;;;10.32;2.00;;;;;;;9.82;100.00;100199.59;5224733;28;20024;-72
2023/01/05 04:29:52;;;;;;;13.63;2.33;;;;;;;9.80;100.00;100188.34;5223095;28;20195;-72
2023/01/05 04:32:22;;;;;;;16.95;2.60;;;;;;;9.75;100.00;100196.34;5223801;28;20046;-72
2023/01/05 04:34:53;;;;;;;15.60;2.53;;;;;;;9.78;100.00;100197.97;5221683;28;20032;-72
2023/01/05 04:37:23;;;;;;;17.83;3.10;;;;;;;9.71;100.00;100205.22;5221956;28;20031;-71
2023/01/05 04:39:53;;;;;;;17.50;2.42;;;;;;;9.82;100.00;100199.59;5224592;28;20097;-72
2023/01/05 04:42:24;;;;;;;21.75;3.22;;;;;;;9.77;100.00;100204.09;5209694;28;20086;-72
2023/01/05 04:44:54;;;;;;;18.83;3.15;;;;;;;9.84;100.00;100213.41;5225750;28;20074;-72
2023/01/05 04:47:24;;;;;;;19.92;2.45;;;;;;;9.82;100.00;100202.19;5223376;28;20028;-72
2023/01/05 04:49:54;;;;;;;22.23;2.92;;;;;;;9.86;100.00;100215.03;5222872;28;20025;-72
2023/01/05 04:52:25;;;;;;;17.50;3.03;;;;;;;9.84;100.00;100216.88;5224092;28;20502;-72
2023/01/05 04:54:55;;;;;;;20.25;2.60;;;;;;;9.83;100.00;100214.31;5226850;28;20021;-72
2023/01/05 04:57:26;;;;;;;14.65;2.50;;;;;;;9.81;100.00;100214.38;5224907;28;20208;-72
2023/01/05 04:59:56;;;;;;;17.50;2.90;;;;;;;9.82;100.00;100220.47;5215131;28;20572;-72
2023/01/05 05:02:27;;;;;;;21.13;3.42;;;;;;;9.83;100.00;100227.38;5234918;28;20506;-72
2023/01/05 05:04:57;;;;;;;20.98;2.70;;;;;;;9.84;100.00;100227.31;5230519;28;20517;-72
2023/01/05 05:07:28;;;;;;;17.13;2.47;;;;;;;9.83;100.00;100230.00;5225885;28;20069;-72
2023/01/05 05:09:58;;;;;;;21.13;3.70;;;;;;;9.80;100.00;100215.28;5230840;28;20056;-72
2023/01/05 05:12:28;;;;;;;19.17;3.00;;;;;;;9.70;100.00;100229.59;5231332;28;20513;-73
2023/01/05 05:14:59;;;;;;;19.23;3.42;;;;;;;9.79;100.00;100231.03;5209613;28;20032;-72
2023/01/05 05:17:29;;;;;;;13.48;2.67;;;;;;;9.80;100.00;100235.31;5227371;28;20269;-72
2023/01/05 05:19:59;;;;;;;18.92;3.38;;;;;;;9.75;100.00;100240.72;5225871;28;20025;-72
2023/01/05 05:22:30;;;;;;;17.17;3.30;;;;;;;9.69;100.00;100245.31;5227500;28;20533;-72
2023/01/05 05:25:00;;;;;;;21.02;2.80;;;;;;;9.69;100.00;100240.09;5227107;28;20025;-73
2023/01/05 05:27:30;;;;;;;19.00;2.63;;;;;;;9.61;100.00;100239.50;5226205;28;20035;-72
2023/01/05 05:30:01;;;;;;;15.25;2.50;;;;;;;9.65;100.00;100251.56;5224567;28;20195;-72
2023/01/05 05:32:31;;;;;;;12.63;2.15;;;;;;;9.67;100.00;100252.34;5212647;28;20557;-72
2023/01/05 05:35:01;;;;;;;18.20;2.45;;;;;;;9.65;100.00;100251.56;5206063;28;20028;-72
2023/01/05 05:37:32;;;;;;;18.73;2.70;;;;;;;9.64;100.00;100258.50;5227198;28;20116;-72
2023/01/05 05:40:02;;;;;;;21.65;2.85;;;;;;;9.59;100.00;100251.75;5228400;28;20029;-72
2023/01/05 05:42:32;;;;;;;19.50;2.53;;;;;;;9.49;100.00;100260.84;5226397;28;20036;-71
2023/01/05 05:45:03;;;;;;;19.20;2.33;;;;;;;9.47;100.00;100271.31;5225648;28;20166;-72
2023/01/05 05:47:33;;;;;;;14.25;2.13;;;;;;;9.44;100.00;100278.41;5211739;28;20081;-72
2023/01/05 05:50:04;;;;;;;13.85;2.35;;;;;;;9.39;100.00;100280.31;5228167;28;20028;-72
2023/01/05 05:52:34;;;;;;;19.02;2.50;;;;;;;9.42;100.00;100282.81;5224157;28;20072;-72
2023/01/05 05:55:06;;;;;;;11.27;2.25;;;;;;;9.44;100.00;100297.53;5208440;28;20024;-72
2023/01/05 05:57:36;;;;;;;16.73;2.45;;;;;;;9.52;100.00;100294.63;5237250;28;20629;-72
2023/01/05 06:00:07;;;;;;;14.95;2.42;;;;;;;9.50;100.00;100296.44;5211390;28;20082;-72
2023/01/05 06:02:38;;;;;;;15.00;2.03;;;;;;;9.58;100.00;100291.78;5211059;28;20040;-72
2023/01/05 06:05:08;;;;;;;16.95;2.72;;;;;;;9.57;100.00;100304.00;5233467;28;20044;-72
2023/01/05 06:07:39;;;;;;;17.88;2.50;;;;;;;9.58;100.00;100302.22;5228790;28;20462;-72
2023/01/05 06:10:09;;;;;;;13.48;2.35;;;;;;;9.53;100.00;100302.44;5229069;28;20062;-72
2023/01/05 06:12:40;;;;;;;11.18;2.10;;;;;;;9.53;100.00;100284.16;5224877;28;20078;-71
2023/01/05 06:15:10;;;;;;;16.70;2.50;;;;;;;9.53;100.00;100296.34;5223466;28;20025;-72
2023/01/05 06:17:40;;;;;;;16.00;2.28;;;;;;;9.55;100.00;100302.34;5210175;28;20043;-72
2023/01/05 06:20:12;;;;;;;13.98;2.10;;;;;;;9.51;100.00;100305.97;5229944;28;20114;-72
2023/01/05 06:22:43;;;;;;;17.02;2.78;;;;;;;9.61;100.00;100312.56;5228450;28;20020;-72
2023/01/05 06:25:13;;;;;;;10.77;1.95;;;;;;;9.62;100.00;100320.34;5228346;28;20047;-72
2023/01/05 06:27:44;;;;;;;12.10;1.92;;;;;;;9.57;100.00;100300.53;5225246;28;20053;-72
2023/01/05 06:30:14;;;;;;;15.18;2.38;;;;;;;9.64;100.00;100321.13;5224801;28;20490;-72
2023/01/05 06:32:44;;;;;;;14.38;2.10;;;;;;;9.69;100.00;100326.19;5214359;28;20029;-72
2023/01/05 06:35:15;;;;;;;16.25;2.25;;;;;;;9.64;100.00;100330.72;5229543;28;20032;-72
2023/01/05 06:37:46;;;;;;;17.35;2.42;;;;;;;9.68;100.00;100308.84;5209668;28;20094;-72
2023/01/05 06:40:16;;;;;;;13.90;1.80;;;;;;;9.72;100.00;100323.47;5224277;28;20106;-72
2023/01/05 06:42:46;;;;;;;11.82;2.13;;;;;;;9.78;100.00;100337.16;5229943;28;20025;-73
2023/01/05 06:45:17;;;;;;;13.85;2.15;;;;;;;9.75;100.00;100347.69;5233045;28;20027;-72
2023/01/05 06:47:47;;;;;;;13.32;2.50;;;;;;;9.74;100.00;100342.53;5206503;28;20044;-72
2023/01/05 06:50:17;;;;;;;9.15;1.90;;;;;;;9.66;100.00;100350.63;5226033;28;20056;-72
2023/01/05 06:52:48;;;;;;;14.90;2.20;;;;;;;9.65;100.00;100350.69;5229204;28;20032;-72
2023/01/05 06:55:20;;;;;;;10.98;2.35;;;;;;;9.67;100.00;100364.53;5230797;28;20406;-72
2023/01/05 06:57:50;;;;;;;14.55;2.47;;;;;;;9.68;100.00;100356.63;5230127;28;20442;-72
2023/01/05 07:00:21;;;;;;;13.48;2.72;;;;;;;9.68;100.00;100371.47;5208225;28;20174;-72
2023/01/05 07:02:51;;;;;;;15.35;2.50;;;;;;;9.65;100.00;100375.00;5231016;28;20200;-72
2023/01/05 07:05:23;;;;;;;13.82;2.05;;;;;;;9.61;100.00;100375.16;5229516;28;20071;-72
2023/01/05 07:07:53;;;;;;;16.73;1.90;;;;;;;9.49;100.00;100376.44;5228240;28;20109;-73
2023/01/05 07:10:24;;;;;;;14.35;2.00;;;;;;;9.57;100.00;100381.41;5224525;28;20103;-72
2023/01/05 07:12:54;;;;;;;16.27;2.33;;;;;;;9.54;100.00;100389.34;5227788;28;20086;-72
2023/01/05 07:15:24;;;;;;;13.70;2.15;;;;;;;9.57;100.00;100390.09;5226824;28;20112;-73
2023/01/05 07:17:54;;;;;;;13.15;1.90;;;;;;;9.60;100.00;100402.16;5202906;28;20041;-73
2023/01/05 07:20:25;;;;;;;16.35;2.58;;;;;;;9.57;100.00;100402.28;5229650;28;20036;-73
2023/01/05 07:22:55;;;;;;;11.68;2.20;;;;;;;9.51;100.00;100410.31;5223985;28;20486;-72
2023/01/05 07:25:30;;;;;;;13.82;2.25;;;;;;;9.48;100.00;100402.59;5211951;28;20509;-73
2023/01/05 07:28:00;;;;;;;14.07;2.40;;;;;;;9.49;100.00;100409.53;5221163;28;20467;-73
2023/01/05 07:30:30;;;;;;;14.32;2.40;;;;;;;9.43;100.00;100414.94;5224839;28;20028;-72
2023/01/05 07:33:01;;;;;;;13.68;2.25;;;;;;;9.47;100.00;100408.72;5221004;28;20028;-73
2023/01/05 07:35:31;;;;;;;16.40;2.65;;;;;;;9.44;100.00;100416.63;5220173;28;20029;-72
2023/01/05 07:38:01;;;;;;;13.63;2.15;;;;;;;9.44;100.00;100420.09;5228148;28;20048;-72
2023/01/05 07:40:32;;;;;;;13.00;2.28;;;;;;;9.47;100.00;100419.16;5231252;28;20036;-73
2023/01/05 07:43:02;;;;;;;18.13;2.42;;;;;;;9.46;100.00;100425.28;5209317;28;20033;-72
2023/01/05 07:45:32;;;;;;;19.17;2.63;;;;;;;9.44;100.00;100427.06;5230147;28;20116;-73
2023/01/05 07:48:03;;;;;;;14.57;2.58;;;;;;;9.41;100.00;100435.84;5230845;28;20466;-73
2023/01/05 07:50:33;;;;;;;17.63;3.25;;;;;;;9.41;100.00;100440.22;5230137;28;20059;-72
2023/01/05 07:53:03;;;;;;;16.60;2.50;;;;;;;9.50;100.00;100439.91;5221566;28;20115;-72
2023/01/05 07:55:34;;;;;;;15.23;2.55;;;;;;;9.53;100.00;100437.19;5226078;28;20028;-73
2023/01/05 07:58:04;;;;;;;19.73;2.78;;;;;;;9.52;100.00;100443.31;5231016;28;20025;-72
2023/01/05 08:00:34;;;;;;;16.38;2.65;;;;;;;9.53;100.00;100450.25;5225775;28;20108;-73
2023/01/05 08:03:05;;;;;;;13.85;2.40;;;;;;;9.61;100.00;100456.03;5224319;28;20503;-73
2023/01/05 08:05:35;;;;;;;10.35;2.00;;;;;;;9.55;100.00;100451.91;5230966;28;20067;-73
2023/01/05 08:08:05;;;;;;;15.65;2.15;;;;;;;9.53;100.00;100460.69;5224484;28;20024;-73
2023/01/05 08:10:41;;;;;;;15.60;2.30;;;;;;;9.59;100.00;100463.06;5230424;28;20387;-72
2023/01/05 08:16:01;;;;;;;9.27;2.00;;;;;;;9.61;100.00;100464.75;5229241;28;20036;-73
2023/01/05 08:18:32;;;;;;;13.88;2.50;;;;;;;9.67;100.00;100476.72;5228606;28;20033;-73
2023/01/05 08:21:03;;;;;;;13.27;2.17;;;;;;;9.62;100.00;100478.66;5227418;28;20032;-73
2023/01/05 08:23:34;;;;;;;15.43;2.35;;;;;;;9.71;100.00;100484.41;5227798;28;20032;-73
2023/01/05 08:26:07;;;;;;;16.23;2.10;;;;;;;9.70;100.00;100484.47;5243535;22;20355;-80
2023/01/05 08:28:38;;;;;;;14.13;2.10;;;;;;;9.67;100.00;100487.16;5227143;28;20420;-80
2023/01/05 08:31:20;;;;;;;15.05;2.25;;;;;;;9.65;100.00;100494.19;5225527;28;20117;-79
2023/01/05 08:33:54;;;;;;;10.73;2.20;;;;;;;9.60;100.00;100501.31;5228376;28;20110;-80
2023/01/05 08:36:25;;;;;;;13.45;2.05;;;;;;;9.61;100.00;100489.97;5238475;28;20424;-79
2023/01/05 08:38:56;;;;;;;13.73;2.45;;;;;;;9.69;100.00;100495.78;5234261;28;20028;-80
2023/01/05 08:41:29;;;;;;;16.00;2.60;;;;;;;9.67;100.00;100489.78;5220670;28;20020;-78
2023/01/05 08:44:04;;;;;;;11.60;2.55;;;;;;;9.61;100.00;100505.63;5219161;28;20035;-79
2023/01/05 08:46:35;;;;;;;16.67;2.63;;;;;;;9.61;100.00;100493.44;5237099;28;20497;-80
2023/01/05 08:49:07;;;;;;;11.75;2.50;;;;;;;9.69;100.00;100491.41;5234768;28;20021;-80
2023/01/05 08:51:37;;;;;;;11.10;1.90;;;;;;;9.82;100.00;100504.94;5234649;28;20031;-79
2023/01/05 08:54:08;;;;;;;14.98;2.00;;;;;;;9.77;100.00;100510.28;5217231;28;20130;-78
2023/01/05 08:56:38;;;;;;;16.73;2.25;;;;;;;9.80;100.00;100509.34;5233532;28;20028;-78
2023/01/05 08:59:12;;;;;;;13.10;2.20;;;;;;;9.76;100.00;100510.34;5235180;28;20021;-79
2023/01/05 09:01:43;;;;;;;11.68;1.98;;;;;;;9.85;100.00;100520.47;5224455;28;20464;-79
2023/01/05 09:04:13;;;;;;;12.15;1.90;;;;;;;9.81;100.00;100524.09;5233515;28;20111;-79
2023/01/05 09:06:43;;;;;;;18.23;2.55;;;;;;;9.81;100.00;100526.72;5231468;28;20029;-79
2023/01/05 09:09:14;;;;;;;15.77;2.13;;;;;;;9.76;100.00;100529.47;5229503;28;20024;-79
2023/01/05 09:11:44;;;;;;;15.38;2.25;;;;;;;9.78;100.00;100526.78;5233442;28;20020;-80
2023/01/05 09:14:14;;;;;;;16.45;2.40;;;;;;;9.75;100.00;100534.72;5215078;28;20217;-80
2023/01/05 09:16:45;;;;;;;11.80;2.15;;;;;;;9.84;100.00;100535.28;5236944;28;20163;-79
2023/01/05 09:19:15;;;;;;;17.20;2.33;;;;;;;9.90;100.00;100540.31;5231367;28;20721;-79
2023/01/05 09:21:45;;;;;;;15.82;2.80;;;;;;;9.84;100.00;100547.50;5230864;28;20036;-79
2023/01/05 09:24:16;;;;;;;14.00;1.95;;;;;;;9.78;100.00;100545.06;5212130;28;20067;-79
2023/01/05 09:26:46;;;;;;;11.20;2.28;;;;;;;9.88;100.00;100557.78;5230135;28;20545;-79
2023/01/05 09:29:16;;;;;;;16.42;2.33;;;;;;;9.92;100.00;100559.38;5220381;28;20017;-78
2023/01/05 09:31:47;;;;;;;17.70;2.55;;;;;;;9.92;100.00;100563.72;5232541;28;20024;-79
2023/01/05 09:34:17;;;;;;;9.60;2.08;;;;;;;9.90;100.00;100570.78;5215553;28;20107;-79
2023/01/05 09:36:48;;;;;;;12.98;2.30;;;;;;;9.92;100.00;100572.44;5235201;28;20052;-79
2023/01/05 09:39:18;;;;;;;11.25;2.15;;;;;;;9.99;100.00;100580.94;5235289;28;20036;-79
2023/01/05 09:41:55;;;;;;;16.13;3.10;;;;;;;9.90;100.00;100576.00;5218598;28;20489;-79
2023/01/05 09:44:29;;;;;;;10.52;2.35;;;;;;;9.85;100.00;100575.28;5232580;28;20024;-79
2023/01/05 09:47:04;;;;;;;14.15;3.28;;;;;;;9.93;100.00;100592.41;5233117;28;20039;-79
2023/01/05 09:49:34;;;;;;;10.10;2.40;;;;;;;9.88;100.00;100589.09;5236773;28;20024;-79
2023/01/05 09:52:09;;;;;;;11.15;2.40;;;;;;;9.92;100.00;100595.06;5231148;28;20592;-79
2023/01/05 09:54:40;;;;;;;14.63;2.35;;;;;;;9.89;100.00;100610.81;5236097;28;20379;-80
2023/01/05 09:57:20;;;;;;;13.85;2.85;;;;;;;9.82;100.00;100611.94;5233613;28;20090;-79
2023/01/05 09:59:52;;;;;;;15.43;4.93;;;;;;;9.83;100.00;100616.25;5229084;28;20098;-79
2023/01/05 10:02:38;;;;;;;13.57;2.42;;;;;;;9.86;100.00;100619.59;5233132;28;20037;-80
2023/01/05 10:05:11;;;;;;;;;;;;;;;9.87;100.00;100623.06;5236919;28;20481;-79
2023/01/05 10:07:48;;;;;;;10.27;2.40;;;;;;;9.97;100.00;100619.28;5226547;28;20298;-79
2023/01/05 10:10:19;;;;;;;17.20;3.65;;;;;;;9.96;100.00;100622.81;5216177;28;20063;-80
2023/01/05 10:13:04;;;;;;;17.20;2.70;;;;;;;9.94;100.00;100632.41;5236142;28;20429;-79
2023/01/05 10:15:52;;;;;;;15.43;3.03;;;;;;;9.99;100.00;100635.75;5235725;28;20283;-80
2023/01/05 10:18:25;;;;;;;19.23;5.53;;;;;;;9.98;100.00;100642.72;5231314;28;20040;-79
2023/01/05 10:21:07;;;;;;;17.50;2.90;;;;;;;10.00;100.00;100640.06;5232340;28;20478;-79
2023/01/05 10:23:46;;;;;;;19.15;4.75;;;;;;;9.97;100.00;100645.38;5224691;28;20024;-79
2023/01/05 10:26:23;;;;;;;16.13;3.45;;;;;;;10.05;100.00;100651.25;5232637;28;20021;-79
2023/01/05 10:29:05;;;;;;;24.33;5.35;;;;;;;10.00;100.00;100666.16;5236075;28;20027;-79
2023/01/05 10:31:47;;;;;;;20.13;5.43;;;;;;;9.96;100.00;100677.63;5230131;28;20028;-79
2023/01/05 10:34:29;;;;;;;7.95;1.92;;;;;;;9.56;100.00;100677.97;5212700;28;20029;-79
2023/01/05 10:37:21;;;;;;;5.65;1.60;;;;;;;8.96;100.00;100697.13;5215028;28;20119;-80
2023/01/05 10:40:36;;;;;;;3.03;1.00;;;;;;;8.75;100.00;100702.03;5229126;28;20075;-79
2023/01/05 10:43:27;;;;;;;3.33;1.30;;;;;;;8.49;100.00;100714.84;5234380;28;20062;-79
2023/01/05 10:45:57;;;;;;;7.95;1.75;;;;;;;8.45;100.00;100708.91;5230155;28;20051;-80
2023/01/05 10:48:32;;;;;;;17.27;6.40;;;;;;;8.26;100.00;100710.25;5234720;28;20029;-80
2023/01/05 10:51:04;;;;;;;20.10;11.27;;;;;;;8.30;100.00;100711.88;5232345;28;20490;-79
2023/01/05 10:53:37;;;;;;;5.03;1.90;;;;;;;8.22;100.00;100712.94;5234195;28;20039;-78
2023/01/05 10:56:22;;;;;;;3.70;1.20;;;;;;;8.14;100.00;100712.22;5234188;28;20062;-79
2023/01/05 10:59:07;;;;;;;3.00;1.20;;;;;;;8.15;100.00;100722.63;5225588;28;20025;-80
2023/01/05 11:01:43;;;;;;;12.80;6.45;;;;;;;8.11;100.00;100723.59;5230807;28;20069;-79
2023/01/05 11:04:20;;;;;;;6.03;2.38;;;;;;;8.12;100.00;100722.69;5230243;28;20576;-79
2023/01/05 11:06:51;;;;;;;4.70;1.15;;;;;;;8.09;100.00;100717.56;5227926;28;20393;-79
2023/01/05 11:09:23;;;;;;;2.38;0.70;;;;;;;8.11;100.00;100723.59;5226844;28;20116;-81
2023/01/05 11:11:56;;;;;;;5.88;1.67;;;;;;;8.24;100.00;100718.97;5230972;28;20025;-80
2023/01/05 11:14:31;;;;;;;4.65;1.13;;;;;;;8.24;100.00;100726.78;5212853;28;20033;-80
2023/01/05 11:17:05;;;;;;;5.83;1.50;;;;;;;8.26;100.00;100728.47;5228833;28;20449;-79
2023/01/05 11:19:42;;;;;;;5.60;1.10;;;;;;;8.32;100.00;100730.03;5229663;28;20429;-80
2023/01/05 11:22:43;;;;;;;4.80;1.15;;;;;;;8.38;100.00;100728.16;5228854;28;20441;-78
2023/01/05 11:25:13;;;;;;;6.15;1.63;;;;;;;8.36;100.00;100734.31;5210483;28;20094;-79
2023/01/05 11:27:44;;;;;;;4.05;1.73;;;;;;;8.42;100.00;100714.16;5210254;28;20088;-79
2023/01/05 11:30:14;;;;;;;4.72;1.90;;;;;;;8.42;100.00;100724.56;5210183;28;20047;-78
2023/01/05 11:32:46;;;;;;;3.38;1.00;;;;;;;8.51;100.00;100718.28;5207141;28;20144;-80
2023/01/05 11:35:24;;;;;;;3.70;0.75;;;;;;;8.52;100.00;100733.88;5234263;28;20429;-79
2023/01/05 11:37:56;;;;;;;5.97;2.00;;;;;;;8.61;100.00;100736.28;5235084;28;20597;-80
2023/01/05 11:40:29;;;;;;;4.53;0.95;;;;;;;8.70;100.00;100733.41;5218658;28;20475;-80
2023/01/05 11:43:08;;;;;;;3.45;1.25;;;;;;;8.73;100.00;100741.16;5235636;28;20035;-81
2023/01/05 11:45:44;;;;;;;3.03;0.70;;;;;;;8.80;100.00;100747.94;5211708;28;20031;-80
2023/01/05 11:48:19;;;;;;;3.00;0.60;;;;;;;8.82;100.00;100748.75;5230639;28;20025;-79
2023/01/05 11:50:52;;;;;;;2.33;0.77;;;;;;;8.81;100.00;100743.56;5233025;28;20506;-80
2023/01/05 11:53:31;;;;;;;43.65;16.95;;;;;;;8.86;100.00;100749.53;5232227;28;20103;-80
2023/01/05 11:56:05;;;;;;;11.02;4.40;;;;;;;8.83;100.00;100760.00;5229023;28;20040;-80
2023/01/05 11:58:44;;;;;;;1.83;0.85;;;;;;;8.81;100.00;100752.25;5233677;28;20074;-80
2023/01/05 12:01:50;;;;;;;1.85;0.55;;;;;;;8.71;100.00;100748.16;5209289;28;20021;-79
2023/01/05 12:05:14;;;;;;;2.90;1.00;;;;;;;8.81;100.00;100764.41;5224591;28;20025;-80
2023/01/05 12:08:00;;;;;;;2.58;0.40;;;;;;;8.76;100.00;100750.66;5137351;28;20064;-80
2023/01/05 12:10:45;;;;;;;5.83;1.13;;;;;;;8.90;100.00;100744.19;5214829;28;20507;-80
2023/01/05 12:13:37;;;;;;;3.20;0.67;;;;;;;8.90;100.00;100735.53;5229675;28;20065;-80
2023/01/05 12:16:33;;;;;;;3.45;0.68;;;;;;;8.91;100.00;100735.47;5228739;28;20328;-80
2023/01/05 12:19:24;;;;;;;3.75;0.90;;;;;;;8.98;100.00;100742.25;5236203;28;20721;-80
2023/01/05 12:22:08;;;;;;;3.47;0.98;;;;;;;8.91;100.00;100740.66;5234228;28;20478;-81